createdAt,value
2023-04-02T00:01:18.875Z,100976.67
2023-04-02T00:03:54.047Z,100982.09
2023-04-02T00:06:34.318Z,100981.98
2023-04-02T00:09:15.849Z,100983.39
2023-04-02T00:11:48.712Z,100985.42
2023-04-02T00:14:28.931Z,100988.75
2023-04-02T00:16:59.997Z,100989.82
2023-04-02T00:19:36.953Z,100997.48
2023-04-02T00:22:09.655Z,100998.29
2023-04-02T00:24:39.310Z,100998.63
2023-04-02T00:27:12.173Z,101004.71
2023-04-02T00:29:51.788Z,101003.97
2023-04-02T00:32:32.239Z,101002.35
2023-04-02T00:35:01.073Z,101005.63
2023-04-02T00:37:39.467Z,101008.72
2023-04-02T00:40:20.944Z,101006.79
2023-04-02T00:42:50.344Z,101012.41
2023-04-02T00:45:31.810Z,101012.86
2023-04-02T00:48:13.335Z,101016.45
2023-04-02T00:50:44.530Z,101018.52
2023-04-02T00:53:25.607Z,101022.48
2023-04-02T00:55:54.357Z,101023.44
2023-04-02T00:58:37.527Z,101025.51
2023-04-02T01:01:19.544Z,101025.80
2023-04-02T01:03:59.769Z,101030.92
2023-04-02T01:06:37.937Z,101031.49
2023-04-02T01:09:30.176Z,101034.23
2023-04-02T01:12:44.263Z,101035.88
2023-04-02T01:15:21.485Z,101037.52
2023-04-02T01:18:01.712Z,101042.20
2023-04-02T01:20:48.203Z,101042.04
2023-04-02T01:23:47.398Z,101045.04
2023-04-02T01:26:34.247Z,101051.58
2023-04-02T01:29:14.296Z,101056.58
2023-04-02T01:31:44.876Z,101062.14
2023-04-02T01:34:19.992Z,101063.08
2023-04-02T01:36:53.790Z,101061.58
2023-04-02T01:39:34.164Z,101067.83
2023-04-02T01:42:20.396Z,101072.49
2023-04-02T01:44:52.871Z,101074.80
2023-04-02T01:47:27.612Z,101080.09
2023-04-02T01:50:13.126Z,101082.52
2023-04-02T01:52:45.333Z,101083.56
2023-04-02T01:55:21.342Z,101087.60
2023-04-02T01:57:52.742Z,101092.78
2023-04-02T02:00:22.718Z,101095.71
2023-04-02T02:02:52.483Z,101096.61
2023-04-02T02:05:23.227Z,101100.05
2023-04-02T02:07:52.869Z,101101.95
2023-04-02T02:10:28.786Z,101102.63
2023-04-02T02:13:00.626Z,101105.05
2023-04-02T02:15:31.890Z,101106.77
2023-04-02T02:18:06.078Z,101111.73
2023-04-02T02:20:36.415Z,101115.42
2023-04-02T02:23:05.057Z,101119.65
2023-04-02T02:25:36.305Z,101124.02
2023-04-02T02:28:10.470Z,101122.61
2023-04-02T02:30:44.972Z,101128.42
2023-04-02T02:33:25.531Z,101126.64
2023-04-02T02:36:18.934Z,101130.02
2023-04-02T02:39:03.640Z,101134.90
2023-04-02T02:41:54.763Z,101132.02
2023-04-02T02:44:32.473Z,101134.25
2023-04-02T02:47:04.434Z,101140.13
2023-04-02T02:49:36.393Z,101137.72
2023-04-02T02:52:25.552Z,101138.08
2023-04-02T02:55:05.493Z,101138.70
2023-04-02T02:57:53.436Z,101149.64
2023-04-02T03:00:24.718Z,101150.98
2023-04-02T03:02:57.028Z,101155.16
2023-04-02T03:05:28.648Z,101153.63
2023-04-02T03:08:03.133Z,101160.48
2023-04-02T03:11:06.937Z,101163.48
2023-04-02T03:13:39.206Z,101165.56
2023-04-02T03:16:15.446Z,101168.59
2023-04-02T03:18:52.548Z,101174.03
2023-04-02T03:21:39.769Z,101179.42
2023-04-02T03:24:19.920Z,101181.16
2023-04-02T03:27:13.596Z,101187.42
2023-04-02T03:29:49.854Z,101191.42
2023-04-02T03:32:27.070Z,101189.13
2023-04-02T03:34:59.780Z,101198.14
2023-04-02T03:37:43.051Z,101200.05
2023-04-02T03:40:35.457Z,101205.05
2023-04-02T03:43:13.361Z,101206.98
2023-04-02T03:45:46.472Z,101205.87
2023-04-02T03:48:24.625Z,101212.01
2023-04-02T03:51:04.331Z,101212.70
2023-04-02T03:53:33.406Z,101219.83
2023-04-02T03:56:02.633Z,101220.91
2023-04-02T03:58:47.147Z,101225.77
2023-04-02T04:01:43.910Z,101231.77
2023-04-02T04:04:17.920Z,101239.66
2023-04-02T04:06:52.555Z,101243.90
2023-04-02T04:09:42.431Z,101250.61
2023-04-02T04:12:36.827Z,101249.34
2023-04-02T04:15:20.563Z,101257.23
2023-04-02T04:18:04.570Z,101257.48
2023-04-02T04:20:46.303Z,101262.14
2023-04-02T04:23:30.507Z,101264.73
2023-04-02T04:26:11.940Z,101269.23
2023-04-02T04:29:06.006Z,101266.55
2023-04-02T04:31:57.049Z,101273.06
2023-04-02T04:34:47.031Z,101281.75
2023-04-02T04:37:39.859Z,101287.75
2023-04-02T04:40:20.028Z,101289.98
2023-04-02T04:42:53.301Z,101289.92
2023-04-02T04:45:53.156Z,101290.63
2023-04-02T04:48:28.246Z,101297.21
2023-04-02T04:51:15.576Z,101297.58
2023-04-02T04:53:49.309Z,101307.77
2023-04-02T04:56:23.901Z,101311.58
2023-04-02T04:59:10.706Z,101312.92
2023-04-02T05:01:45.695Z,101316.54
2023-04-02T05:04:26.284Z,101323.26
2023-04-02T05:07:13.521Z,101327.73
2023-04-02T05:10:13.815Z,101332.44
2023-04-02T05:12:57.483Z,101334.96
2023-04-02T05:15:31.404Z,101342.00
2023-04-02T05:18:18.713Z,101338.39
2023-04-02T05:20:54.726Z,101343.26
2023-04-02T05:23:34.421Z,101344.59
2023-04-02T05:26:06.119Z,101350.81
2023-04-02T05:28:40.484Z,101353.75
2023-04-02T05:31:26.132Z,101353.67
2023-04-02T05:33:55.700Z,101356.98
2023-04-02T05:36:29.687Z,101356.55
2023-04-02T05:38:59.909Z,101362.50
2023-04-02T05:41:40.535Z,101370.48
2023-04-02T05:44:48.070Z,101363.33
2023-04-02T05:47:25.716Z,101373.54
2023-04-02T05:50:17.200Z,101376.49
2023-04-02T05:52:52.217Z,101381.16
2023-04-02T05:55:23.670Z,101385.59
2023-04-02T05:58:21.322Z,101392.48
2023-04-02T06:01:01.721Z,101392.75
2023-04-02T06:03:37.582Z,101394.32
2023-04-02T06:06:32.244Z,101400.97
2023-04-02T06:09:10.024Z,101406.89
2023-04-02T06:11:47.323Z,101407.20
2023-04-02T06:14:18.876Z,101414.11
2023-04-02T06:16:48.506Z,101419.14
2023-04-02T06:19:22.452Z,101422.66
2023-04-02T06:21:58.310Z,101429.29
2023-04-02T06:24:29.495Z,101430.92
2023-04-02T06:27:06.485Z,101435.32
2023-04-02T06:29:40.995Z,101444.55
2023-04-02T06:32:13.162Z,101443.63
2023-04-02T06:34:45.119Z,101440.27
2023-04-02T06:37:25.885Z,101448.86
2023-04-02T06:40:42.391Z,101452.04
2023-04-02T06:43:38.684Z,101456.67
2023-04-02T06:46:43.766Z,101465.13
2023-04-02T06:49:19.114Z,101469.91
2023-04-02T06:51:52.189Z,101475.10
2023-04-02T06:54:21.156Z,101472.40
2023-04-02T06:56:56.585Z,101477.17
2023-04-02T06:59:29.109Z,101475.95
2023-04-02T07:02:16.313Z,101480.09
2023-04-02T07:04:44.542Z,101489.44
2023-04-02T07:07:12.881Z,101493.17
2023-04-02T07:09:43.596Z,101491.91
2023-04-02T07:12:13.632Z,101498.64
2023-04-02T07:14:42.717Z,101505.20
2023-04-02T07:17:17.913Z,101500.13
2023-04-02T07:19:49.711Z,101506.52
2023-04-02T07:22:20.243Z,101515.15
2023-04-02T07:24:52.515Z,101515.42
2023-04-02T07:27:20.569Z,101518.59
2023-04-02T07:29:48.532Z,101520.64
2023-04-02T07:32:17.441Z,101528.59
2023-04-02T07:34:45.709Z,101526.61
2023-04-02T07:37:14.755Z,101529.42
2023-04-02T07:39:42.674Z,101534.48
2023-04-02T07:42:10.798Z,101535.80
2023-04-02T07:44:38.963Z,101537.75
2023-04-02T07:47:08.722Z,101539.23
2023-04-02T07:49:36.692Z,101550.17
2023-04-02T07:52:05.138Z,101547.28
2023-04-02T07:54:33.248Z,101542.85
2023-04-02T07:57:01.653Z,101546.56
2023-04-02T07:59:29.810Z,101552.23
2023-04-02T08:01:58.118Z,101557.19
2023-04-02T08:04:26.255Z,101556.59
2023-04-02T08:06:54.310Z,101558.98
2023-04-02T08:09:22.229Z,101567.58
2023-04-02T08:11:50.250Z,101572.79
2023-04-02T08:14:18.318Z,101575.81
2023-04-02T08:16:56.614Z,101582.48
2023-04-02T08:19:24.912Z,101589.19
2023-04-02T08:21:54.033Z,101593.73
2023-04-02T08:24:23.081Z,101596.77
2023-04-02T08:26:51.727Z,101599.71
2023-04-02T08:29:20.674Z,101606.79
2023-04-02T08:31:48.604Z,101609.92
2023-04-02T08:34:16.566Z,101603.84
2023-04-02T08:36:45.396Z,101604.79
2023-04-02T08:39:13.975Z,101609.64
2023-04-02T08:41:53.741Z,101612.60
2023-04-02T08:44:37.050Z,101611.90
2023-04-02T08:47:08.505Z,101621.45
2023-04-02T08:49:44.864Z,101624.45
2023-04-02T08:52:28.801Z,101636.38
2023-04-02T08:54:58.320Z,101636.86
2023-04-02T08:57:49.802Z,101635.15
2023-04-02T09:00:26.869Z,101635.95
2023-04-02T09:03:03.678Z,101638.89
2023-04-02T09:05:34.978Z,101645.95
2023-04-02T09:08:08.015Z,101647.45
2023-04-02T09:10:42.740Z,101652.90
2023-04-02T09:13:24.668Z,101650.03
2023-04-02T09:16:03.910Z,101661.83
2023-04-02T09:18:33.301Z,101664.02
2023-04-02T09:21:17.463Z,101673.55
2023-04-02T09:23:45.549Z,101671.24
2023-04-02T09:26:29.361Z,101672.69
2023-04-02T09:29:02.132Z,101678.70
2023-04-02T09:31:44.563Z,101686.53
2023-04-02T09:34:33.802Z,101684.69
2023-04-02T09:37:08.007Z,101686.81
2023-04-02T09:39:36.033Z,101691.77
2023-04-02T09:42:28.207Z,101690.52
2023-04-02T09:45:23.820Z,101691.88
2023-04-02T09:47:54.186Z,101698.41
2023-04-02T09:50:22.111Z,101708.64
2023-04-02T09:52:50.650Z,101712.41
2023-04-02T09:55:29.119Z,101724.01
2023-04-02T09:58:08.235Z,101733.84
2023-04-02T10:00:37.082Z,101735.77
2023-04-02T10:03:23.838Z,101739.50
2023-04-02T10:06:14.328Z,101740.08
2023-04-02T10:08:45.273Z,101745.71
2023-04-02T10:11:36.606Z,101740.60
2023-04-02T10:14:26.111Z,101756.34
2023-04-02T10:16:58.231Z,101754.85
2023-04-02T10:19:42.587Z,101758.30
2023-04-02T10:22:15.356Z,101772.72
2023-04-02T10:24:44.263Z,101779.32
2023-04-02T10:27:18.415Z,101779.00
2023-04-02T10:29:52.168Z,101783.22
2023-04-02T10:32:37.505Z,101785.00
2023-04-02T10:35:16.230Z,101791.59
2023-04-02T10:37:47.228Z,101796.92
2023-04-02T10:40:27.864Z,101793.23
2023-04-02T10:43:24.006Z,101792.87
2023-04-02T10:46:12.674Z,101802.09
2023-04-02T10:49:02.248Z,101809.38
2023-04-02T10:52:24.274Z,101802.83
2023-04-02T10:54:55.568Z,101815.11
2023-04-02T10:57:33.910Z,101819.20
2023-04-02T11:00:11.214Z,101821.57
2023-04-02T11:02:47.018Z,101831.19
2023-04-02T11:05:25.715Z,101829.64
2023-04-02T11:08:02.371Z,101831.19
2023-04-02T11:10:34.481Z,101841.61
2023-04-02T11:13:29.506Z,101838.81
2023-04-02T11:15:57.814Z,101837.63
2023-04-02T11:18:28.420Z,101838.53
2023-04-02T11:20:59.972Z,101842.46
2023-04-02T11:23:33.846Z,101838.87
2023-04-02T11:26:29.698Z,101847.08
2023-04-02T11:29:06.534Z,101843.11
2023-04-02T11:31:34.769Z,101851.33
2023-04-02T11:34:02.821Z,101850.86
2023-04-02T11:36:55.732Z,101854.82
2023-04-02T11:39:53.837Z,101862.81
2023-04-02T11:42:27.974Z,101870.77
2023-04-02T11:45:00.162Z,101865.21
2023-04-02T11:47:30.079Z,101874.40
2023-04-02T11:50:04.494Z,101871.41
2023-04-02T11:52:37.965Z,101880.45
2023-04-02T11:55:19.042Z,101878.10
2023-04-02T11:57:59.434Z,101883.63
2023-04-02T12:01:04.995Z,101892.60
2023-04-02T12:03:56.571Z,101900.85
2023-04-02T12:06:27.396Z,101904.23
2023-04-02T12:09:06.226Z,101915.42
2023-04-02T12:11:38.485Z,101905.96
2023-04-02T12:14:31.141Z,101918.20
2023-04-02T12:16:59.852Z,101912.87
2023-04-02T12:19:30.652Z,101922.64
2023-04-02T12:22:00.415Z,101912.73
2023-04-02T12:24:31.492Z,101919.73
2023-04-02T12:27:15.762Z,101918.00
2023-04-02T12:29:44.117Z,101919.57
2023-04-02T12:32:22.235Z,101929.86
2023-04-02T12:34:53.127Z,101940.69
2023-04-02T12:37:24.985Z,101933.45
2023-04-02T12:40:01.646Z,101943.01
2023-04-02T12:42:34.947Z,101941.80
2023-04-02T12:45:06.989Z,101947.83
2023-04-02T12:47:35.178Z,101956.73
2023-04-02T12:50:03.650Z,101958.23
2023-04-02T12:52:32.875Z,101960.05
2023-04-02T12:55:03.871Z,101967.23
2023-04-02T12:57:38.182Z,101971.54
2023-04-02T13:00:21.291Z,101961.69
2023-04-02T13:02:52.502Z,101965.46
2023-04-02T13:05:44.597Z,101977.80
2023-04-02T13:08:23.699Z,101969.16
2023-04-02T13:11:03.221Z,101983.20
2023-04-02T13:13:37.220Z,101991.81
2023-04-02T13:16:10.000Z,101984.05
2023-04-02T13:18:39.949Z,101987.43
2023-04-02T13:21:28.472Z,101993.89
2023-04-02T13:23:56.774Z,101995.97
2023-04-02T13:26:27.432Z,102008.33
2023-04-02T13:28:56.657Z,102004.70
2023-04-02T13:31:24.694Z,102003.08
2023-04-02T13:33:52.948Z,102008.06
2023-04-02T13:36:21.141Z,102013.27
2023-04-02T13:38:49.131Z,102011.16
2023-04-02T13:41:26.529Z,102020.94
2023-04-02T13:43:56.199Z,102029.84
2023-04-02T13:46:27.050Z,102031.31
2023-04-02T13:48:56.183Z,102032.00
2023-04-02T13:51:37.407Z,102030.23
2023-04-02T13:54:16.981Z,102031.46
2023-04-02T13:56:45.114Z,102033.34
2023-04-02T13:59:14.216Z,102036.58
2023-04-02T14:01:45.304Z,102037.47
2023-04-02T14:04:18.999Z,102038.94
2023-04-02T14:07:06.167Z,102046.27
2023-04-02T14:09:43.354Z,102052.77
2023-04-02T14:12:21.463Z,102045.45
2023-04-02T14:15:19.741Z,102057.84
2023-04-02T14:18:05.707Z,102064.63
2023-04-02T14:20:47.500Z,102059.75
2023-04-02T14:23:32.504Z,102060.58
2023-04-02T14:26:19.010Z,102061.19
2023-04-02T14:29:12.486Z,102071.43
2023-04-02T14:32:06.437Z,102071.98
2023-04-02T14:35:07.908Z,102085.41
2023-04-02T14:37:57.019Z,102074.57
2023-04-02T14:40:52.053Z,102080.41
2023-04-02T14:43:24.127Z,102087.68
2023-04-02T14:46:02.960Z,102080.06
2023-04-02T14:48:31.153Z,102095.70
2023-04-02T14:51:14.853Z,102098.16
2023-04-02T14:53:58.998Z,102102.02
2023-04-02T14:56:29.013Z,102102.80
2023-04-02T14:59:17.399Z,102099.62
2023-04-02T15:01:50.167Z,102109.05
2023-04-02T15:04:24.348Z,102108.83
2023-04-02T15:06:56.738Z,102105.71
2023-04-02T15:09:42.201Z,102109.78
2023-04-02T15:12:20.510Z,102118.10
2023-04-02T15:14:55.033Z,102128.86
2023-04-02T15:17:24.833Z,102137.66
2023-04-02T15:20:02.438Z,102138.88
2023-04-02T15:22:57.508Z,102132.44
2023-04-02T15:25:34.728Z,102138.50
2023-04-02T15:28:20.036Z,102143.41
2023-04-02T15:30:52.572Z,102149.10
2023-04-02T15:33:23.540Z,102149.02
2023-04-02T15:36:07.402Z,102148.47
2023-04-02T15:38:45.119Z,102162.59
2023-04-02T15:41:27.966Z,102157.77
2023-04-02T15:44:16.617Z,102163.36
2023-04-02T15:47:12.486Z,102171.92
2023-04-02T15:49:43.072Z,102179.66
2023-04-02T15:52:36.234Z,102181.05
2023-04-02T15:55:30.926Z,102182.09
2023-04-02T15:58:14.268Z,102192.14
2023-04-02T16:01:03.698Z,102189.08
2023-04-02T16:04:04.098Z,102207.27
2023-04-02T16:06:42.065Z,102211.68
2023-04-02T16:09:39.077Z,102222.30
2023-04-02T16:12:16.045Z,102235.70
2023-04-02T16:14:47.502Z,102223.94
2023-04-02T16:17:51.686Z,102222.18
2023-04-02T16:20:34.452Z,102237.64
2023-04-02T16:23:13.266Z,102233.97
2023-04-02T16:26:22.901Z,102235.06
2023-04-02T16:29:11.999Z,102243.45
2023-04-02T16:32:10.491Z,102252.12
2023-04-02T16:35:41.081Z,102254.29
2023-04-02T16:38:12.056Z,102261.02
2023-04-02T16:40:57.204Z,102269.94
2023-04-02T16:44:04.212Z,102275.67
2023-04-02T16:47:12.695Z,102268.57
2023-04-02T16:50:12.649Z,102278.12
2023-04-02T16:52:56.879Z,102289.11
2023-04-02T16:55:37.170Z,102290.69
2023-04-02T16:58:36.254Z,102307.34
2023-04-02T17:01:16.114Z,102308.95
2023-04-02T17:03:57.038Z,102318.73
2023-04-02T17:06:53.256Z,102318.11
2023-04-02T17:09:32.231Z,102332.06
2023-04-02T17:12:14.430Z,102330.45
2023-04-02T17:14:57.615Z,102329.13
2023-04-02T17:17:25.817Z,102339.82
2023-04-02T17:19:58.967Z,102335.10
2023-04-02T17:22:30.814Z,102347.78
2023-04-02T17:25:03.073Z,102345.46
2023-04-02T17:27:45.968Z,102348.86
2023-04-02T17:30:20.401Z,102352.65
2023-04-02T17:32:48.404Z,102360.05
2023-04-02T17:35:43.970Z,102359.45
2023-04-02T17:38:20.135Z,102357.15
2023-04-02T17:41:03.658Z,102360.88
2023-04-02T17:44:02.772Z,102368.92
2023-04-02T17:46:57.253Z,102371.04
2023-04-02T17:49:40.065Z,102384.19
2023-04-02T17:52:16.120Z,102391.59
2023-04-02T17:55:19.829Z,102393.92
2023-04-02T17:58:25.171Z,102389.77
2023-04-02T18:01:14.608Z,102395.92
2023-04-02T18:04:00.536Z,102403.71
2023-04-02T18:07:07.211Z,102408.11
2023-04-02T18:09:58.701Z,102404.21
2023-04-02T18:12:35.767Z,102405.66
2023-04-02T18:15:06.523Z,102406.95
2023-04-02T18:18:08.916Z,102418.34
2023-04-02T18:20:37.136Z,102419.95
2023-04-02T18:23:24.207Z,102425.20
2023-04-02T18:26:01.151Z,102437.88
2023-04-02T18:28:49.133Z,102434.94
2023-04-02T18:31:50.069Z,102431.48
2023-04-02T18:34:18.258Z,102446.19
2023-04-02T18:37:00.235Z,102438.92
2023-04-02T18:39:45.825Z,102448.34
2023-04-02T18:42:29.039Z,102444.40
2023-04-02T18:45:22.311Z,102448.51
2023-04-02T18:48:10.444Z,102450.23
2023-04-02T18:50:40.978Z,102448.00
2023-04-02T18:53:13.697Z,102452.59
2023-04-02T18:55:48.578Z,102452.81
2023-04-02T18:58:27.061Z,102451.80
2023-04-02T19:00:56.460Z,102461.31
2023-04-02T19:03:27.545Z,102473.77
2023-04-02T19:06:05.749Z,102468.73
2023-04-02T19:08:48.330Z,102473.27
2023-04-02T19:11:31.686Z,102480.98
2023-04-02T19:14:02.776Z,102478.79
2023-04-02T19:16:53.628Z,102483.61
2023-04-02T19:19:26.612Z,102492.06
2023-04-02T19:22:00.728Z,102482.31
2023-04-02T19:24:41.531Z,102489.88
2023-04-02T19:27:21.633Z,102488.29
2023-04-02T19:30:04.415Z,102495.08
2023-04-02T19:33:01.958Z,102498.20
2023-04-02T19:35:40.537Z,102499.06
2023-04-02T19:38:37.062Z,102494.98
2023-04-02T19:41:50.620Z,102501.29
2023-04-02T19:44:19.818Z,102501.99
2023-04-02T19:46:48.135Z,102502.42
2023-04-02T19:49:28.558Z,102503.22
2023-04-02T19:51:57.083Z,102514.77
2023-04-02T19:54:25.109Z,102513.10
2023-04-02T19:56:53.202Z,102515.42
2023-04-02T19:59:21.969Z,102516.67
2023-04-02T20:01:50.040Z,102521.05
2023-04-02T20:04:18.241Z,102527.23
2023-04-02T20:06:46.373Z,102529.95
2023-04-02T20:09:14.449Z,102522.92
2023-04-02T20:11:42.623Z,102525.66
2023-04-02T20:14:10.817Z,102533.80
2023-04-02T20:16:38.916Z,102532.03
2023-04-02T20:19:07.042Z,102537.23
2023-04-02T20:21:39.006Z,102542.39
2023-04-02T20:24:07.831Z,102544.86
2023-04-02T20:26:36.370Z,102545.80
2023-04-02T20:29:04.325Z,102552.61
2023-04-02T20:31:34.062Z,102553.13
2023-04-02T20:34:05.088Z,102553.11
2023-04-02T20:36:33.480Z,102558.13
2023-04-02T20:39:01.550Z,102554.95
2023-04-02T20:41:29.609Z,102553.92
2023-04-02T20:43:57.674Z,102557.07
2023-04-02T20:46:26.451Z,102565.89
2023-04-02T20:48:54.745Z,102564.68
2023-04-02T20:51:23.125Z,102564.85
2023-04-02T20:53:51.038Z,102564.48
2023-04-02T20:56:20.365Z,102565.66
2023-04-02T20:58:48.561Z,102569.40
2023-04-02T21:01:23.658Z,102568.27
2023-04-02T21:04:00.505Z,102569.80
2023-04-02T21:06:31.931Z,102569.93
2023-04-02T21:09:02.160Z,102573.44
2023-04-02T21:11:30.407Z,102569.02
2023-04-02T21:13:58.702Z,102575.27
2023-04-02T21:16:29.819Z,102574.15
2023-04-02T21:19:01.178Z,102579.47
2023-04-02T21:21:29.223Z,102582.27
2023-04-02T21:24:02.950Z,102582.80
2023-04-02T21:26:34.653Z,102586.74
2023-04-02T21:29:04.214Z,102588.69
2023-04-02T21:31:38.090Z,102587.89
2023-04-02T21:34:08.470Z,102585.35
2023-04-02T21:36:40.323Z,102585.12
2023-04-02T21:39:12.367Z,102587.77
2023-04-02T21:41:43.386Z,102588.39
2023-04-02T21:44:14.846Z,102589.26
2023-04-02T21:46:43.860Z,102589.87
2023-04-02T21:49:14.090Z,102597.27
2023-04-02T21:51:43.881Z,102599.41
2023-04-02T21:54:12.466Z,102599.98
2023-04-02T21:56:43.405Z,102607.15
2023-04-02T21:59:13.209Z,102607.94
2023-04-02T22:01:43.698Z,102612.35
2023-04-02T22:04:18.159Z,102611.65
2023-04-02T22:06:46.746Z,102614.68
2023-04-02T22:09:21.843Z,102618.66
2023-04-02T22:11:54.566Z,102617.96
2023-04-02T22:14:23.103Z,102617.38
2023-04-02T22:16:52.210Z,102618.38
2023-04-02T22:19:21.441Z,102619.66
2023-04-02T22:21:49.632Z,102619.95
2023-04-02T22:24:25.499Z,102615.83
2023-04-02T22:26:53.863Z,102616.90
2023-04-02T22:29:22.110Z,102620.91
2023-04-02T22:31:50.453Z,102622.17
2023-04-02T22:34:18.451Z,102622.88
2023-04-02T22:36:46.389Z,102624.09
2023-04-02T22:39:15.317Z,102625.77
2023-04-02T22:41:43.494Z,102629.47
2023-04-02T22:44:16.513Z,102636.64
2023-04-02T22:46:44.655Z,102638.89
2023-04-02T22:49:12.924Z,102637.23
2023-04-02T22:51:41.041Z,102639.10
2023-04-02T22:54:09.165Z,102637.67
2023-04-02T22:56:37.724Z,102639.02
2023-04-02T22:59:05.978Z,102642.95
2023-04-02T23:01:36.218Z,102641.77
2023-04-02T23:04:05.610Z,102643.61
2023-04-02T23:06:34.031Z,102639.19
2023-04-02T23:09:02.302Z,102646.11
2023-04-02T23:11:30.935Z,102650.61
2023-04-02T23:13:58.962Z,102646.30
2023-04-02T23:16:29.472Z,102648.20
2023-04-02T23:18:58.767Z,102652.52
2023-04-02T23:21:27.304Z,102650.95
2023-04-02T23:23:56.046Z,102656.89
2023-04-02T23:26:29.590Z,102654.93
2023-04-02T23:28:59.752Z,102658.06
2023-04-02T23:31:28.551Z,102657.69
2023-04-02T23:33:57.147Z,102660.14
2023-04-02T23:36:31.253Z,102660.42
2023-04-02T23:39:02.875Z,102660.77
2023-04-02T23:41:31.625Z,102662.77
2023-04-02T23:43:59.953Z,102664.80
2023-04-02T23:46:28.934Z,102664.98
2023-04-02T23:48:58.259Z,102666.83
2023-04-02T23:51:26.940Z,102667.16
2023-04-02T23:53:55.605Z,102669.89
2023-04-02T23:56:24.183Z,102671.45
2023-04-02T23:58:52.281Z,102671.25
